Time;durP1;ratioP1;P1;durP2;ratioP2;P2;SDS_P1;SDS_P2;PMS_P1;PMS_P2;Temp;Humidity;BMP_temperature;BMP_pressure;BME280_temperature;BME280_humidity;BME280_pressure;Samples;Min_cycle;Max_cycle;Signal;HPM_P1;HPM_P2
2023/06/26 00:00:28;;;;;;;9.85;7.63;;;;;;;22.11;100.00;101076.88;5215534;28;20480;-69
2023/06/26 00:02:59;;;;;;;10.48;7.32;;;;;;;22.15;100.00;101080.06;5215829;28;20133;-69
2023/06/26 00:05:34;;;;;;;8.80;7.65;;;;;;;22.12;100.00;101078.56;5216076;28;20032;-69
2023/06/26 00:08:06;;;;;;;9.35;7.38;;;;;;;22.10;100.00;101067.06;5211904;28;20046;-69
2023/06/26 00:10:37;;;;;;;9.05;7.20;;;;;;;22.16;100.00;101077.16;5213137;28;20386;-69
2023/06/26 00:13:12;;;;;;;8.43;7.55;;;;;;;22.12;100.00;101071.25;5221792;28;20021;-69
2023/06/26 00:15:43;;;;;;;8.07;7.03;;;;;;;22.06;100.00;101073.91;5212034;28;20044;-69
2023/06/26 00:18:15;;;;;;;8.23;7.43;;;;;;;22.08;100.00;101069.94;5226984;28;20466;-69
2023/06/26 00:20:46;;;;;;;8.02;7.22;;;;;;;22.02;100.00;101076.13;5214290;28;20036;-69
2023/06/26 00:23:18;;;;;;;8.80;6.65;;;;;;;22.04;100.00;101063.22;5214122;28;20157;-69
2023/06/26 00:25:49;;;;;;;8.50;7.70;;;;;;;21.98;100.00;101074.00;5219013;28;20021;-69
2023/06/26 00:28:20;;;;;;;8.60;7.70;;;;;;;21.93;100.00;101067.22;5224677;28;20442;-69
2023/06/26 00:30:52;;;;;;;8.52;7.63;;;;;;;21.90;100.00;101074.94;5221972;28;20696;-69
2023/06/26 00:33:23;;;;;;;9.70;7.65;;;;;;;21.90;100.00;101074.94;5219230;28;20041;-69
2023/06/26 00:35:55;;;;;;;9.98;8.02;;;;;;;21.86;100.00;101068.16;5225087;28;20390;-69
2023/06/26 00:38:26;;;;;;;8.90;7.97;;;;;;;21.82;100.00;101061.41;5221067;28;20033;-69
2023/06/26 00:40:57;;;;;;;11.90;8.02;;;;;;;21.79;100.00;101064.53;5223450;28;20028;-69
2023/06/26 00:43:29;;;;;;;8.85;7.93;;;;;;;21.74;100.00;101065.91;5221782;28;20084;-69
2023/06/26 00:46:00;;;;;;;8.68;7.78;;;;;;;21.73;100.00;101060.69;5226051;28;20049;-69
2023/06/26 00:48:31;;;;;;;9.50;7.78;;;;;;;21.65;100.00;101069.75;5222172;28;20030;-69
2023/06/26 00:51:03;;;;;;;9.88;8.25;;;;;;;21.66;100.00;101071.41;5214841;28;20061;-69
2023/06/26 00:53:35;;;;;;;9.75;8.57;;;;;;;21.62;100.00;101080.13;5212777;28;20041;-69
2023/06/26 00:56:07;;;;;;;9.65;8.07;;;;;;;21.59;100.00;101075.06;5213862;28;20409;-69
2023/06/26 00:58:39;;;;;;;10.40;8.25;;;;;;;21.53;100.00;101074.78;5211247;28;20060;-69
2023/06/26 01:01:17;;;;;;;10.73;7.63;;;;;;;21.53;100.00;101079.34;5213464;28;20489;-69
2023/06/26 01:03:52;;;;;;;10.40;8.45;;;;;;;21.52;100.00;101085.81;5214859;28;20552;-70
2023/06/26 01:06:27;;;;;;;10.50;8.15;;;;;;;21.54;100.00;101083.78;5212855;28;20141;-69
2023/06/26 01:08:59;;;;;;;9.65;7.63;;;;;;;21.50;100.00;101082.44;5215597;28;20043;-69
2023/06/26 01:11:31;;;;;;;9.90;7.50;;;;;;;21.50;100.00;101083.28;5211622;28;20030;-69
2023/06/26 01:14:02;;;;;;;8.55;7.47;;;;;;;21.52;100.00;101086.66;5214333;28;20118;-69
2023/06/26 01:16:35;;;;;;;9.95;6.65;;;;;;;21.49;100.00;101091.59;5211466;28;20222;-70
2023/06/26 01:19:13;;;;;;;10.27;7.85;;;;;;;21.48;100.00;101084.50;5219871;28;20040;-69
2023/06/26 01:21:46;;;;;;;10.35;7.25;;;;;;;21.45;100.00;101088.41;5220070;28;20060;-70
2023/06/26 01:24:27;;;;;;;8.37;6.80;;;;;;;21.43;100.00;101092.31;5225331;28;20159;-69
2023/06/26 01:27:00;;;;;;;8.18;6.80;;;;;;;21.40;100.00;101089.94;5223279;28;20480;-69
2023/06/26 01:29:33;;;;;;;9.13;6.68;;;;;;;21.39;100.00;101099.97;5223296;28;20436;-70
2023/06/26 01:32:05;;;;;;;13.02;7.00;;;;;;;21.35;100.00;101102.22;5223964;28;20036;-69
2023/06/26 01:34:37;;;;;;;7.25;6.50;;;;;;;21.33;100.00;101098.84;5220472;28;20052;-70
2023/06/26 01:37:08;;;;;;;8.85;6.82;;;;;;;21.32;100.00;101099.88;5223712;28;20311;-69
2023/06/26 01:39:40;;;;;;;8.68;6.38;;;;;;;21.28;100.00;101101.25;5224167;28;20071;-69
2023/06/26 01:42:11;;;;;;;8.80;6.65;;;;;;;21.25;100.00;101104.34;5223142;28;20031;-69
2023/06/26 01:44:44;;;;;;;12.60;6.25;;;;;;;;;;5224548;28;20526;-69
2023/06/26 01:47:21;;;;;;;9.37;6.67;;;;;;;21.21;100.00;101105.72;5228459;28;20059;-69
2023/06/26 01:50:05;;;;;;;8.00;5.80;;;;;;;21.20;100.00;101111.31;5231144;28;20028;-69
2023/06/26 01:52:52;;;;;;;9.60;5.43;;;;;;;21.18;100.00;101113.38;5233144;28;20026;-69
2023/06/26 01:55:35;;;;;;;7.57;5.57;;;;;;;21.12;100.00;101118.50;5234391;28;20033;-68
2023/06/26 01:58:08;;;;;;;7.38;5.28;;;;;;;21.07;100.00;101122.78;5230055;28;20400;-69
2023/06/26 02:00:40;;;;;;;7.60;5.22;;;;;;;21.05;100.00;101122.09;5231262;28;20045;-69
2023/06/26 02:03:11;;;;;;;7.43;5.28;;;;;;;20.99;100.00;101123.66;5214257;28;20033;-69
2023/06/26 02:05:44;;;;;;;7.35;5.13;;;;;;;20.95;100.00;101128.59;5233333;28;20090;-69
2023/06/26 02:08:15;;;;;;;9.18;5.15;;;;;;;20.92;100.00;101131.69;5228779;28;20656;-69
2023/06/26 02:10:47;;;;;;;7.40;5.65;;;;;;;20.87;100.00;101123.22;5224039;28;20034;-69
2023/06/26 02:13:18;;;;;;;8.75;5.10;;;;;;;20.82;100.00;101133.75;5224153;28;20112;-69
2023/06/26 02:15:49;;;;;;;6.13;4.60;;;;;;;20.78;100.00;101128.88;5225872;28;20033;-70
2023/06/26 02:18:22;;;;;;;8.02;5.22;;;;;;;20.75;100.00;101127.38;5230927;28;20112;-69
2023/06/26 02:20:53;;;;;;;7.63;5.20;;;;;;;20.70;100.00;101129.78;5223563;28;20030;-69
2023/06/26 02:23:25;;;;;;;9.98;4.93;;;;;;;20.64;100.00;101122.34;5227941;28;20367;-69
2023/06/26 02:25:56;;;;;;;7.20;5.10;;;;;;;20.59;100.00;101122.81;5226042;28;20447;-70
2023/06/26 02:28:27;;;;;;;7.25;4.97;;;;;;;20.58;100.00;101126.56;5229812;28;20076;-69
2023/06/26 02:30:59;;;;;;;8.18;4.78;;;;;;;20.51;100.00;101134.56;5233549;28;20072;-69
2023/06/26 02:33:30;;;;;;;8.25;4.72;;;;;;;20.46;100.00;101123.41;5233883;28;20029;-69
2023/06/26 02:36:02;;;;;;;8.80;4.78;;;;;;;20.42;100.00;101132.06;5233270;28;20490;-69
2023/06/26 02:38:33;;;;;;;8.25;4.55;;;;;;;20.36;100.00;101133.59;5236309;28;20037;-69
2023/06/26 02:41:05;;;;;;;7.10;4.60;;;;;;;20.32;100.00;101134.97;5231662;28;20032;-69
2023/06/26 02:43:36;;;;;;;8.90;4.50;;;;;;;20.25;100.00;101136.69;5226070;28;20025;-69
2023/06/26 02:46:07;;;;;;;8.13;4.15;;;;;;;20.22;100.00;101139.75;5232230;28;20040;-69
2023/06/26 02:48:39;;;;;;;8.90;4.22;;;;;;;20.16;100.00;101139.41;5236305;28;20135;-69
2023/06/26 02:51:10;;;;;;;7.30;4.10;;;;;;;20.12;100.00;101146.19;5234908;28;20033;-69
2023/06/26 02:53:41;;;;;;;9.70;4.30;;;;;;;20.08;100.00;101154.84;5230134;28;20365;-70
2023/06/26 02:56:13;;;;;;;8.32;4.30;;;;;;;20.05;100.00;101157.91;5231274;28;20117;-70
2023/06/26 02:58:44;;;;;;;7.35;4.05;;;;;;;19.98;100.00;101165.84;5237086;28;20029;-69
2023/06/26 03:01:16;;;;;;;8.82;5.00;;;;;;;19.99;100.00;101170.25;5227070;28;20475;-69
2023/06/26 03:03:47;;;;;;;7.63;4.32;;;;;;;19.94;100.00;101162.66;5230104;28;20036;-69
2023/06/26 03:06:19;;;;;;;7.93;4.25;;;;;;;19.91;100.00;101176.53;5229814;28;20132;-69
2023/06/26 03:08:50;;;;;;;8.48;4.53;;;;;;;19.88;100.00;101181.44;5225028;28;20553;-69
2023/06/26 03:11:22;;;;;;;9.38;4.50;;;;;;;19.84;100.00;101180.94;5215485;28;20396;-69
2023/06/26 03:13:53;;;;;;;7.45;4.85;;;;;;;19.81;100.00;101177.72;5220187;28;20369;-69
2023/06/26 03:16:24;;;;;;;8.38;4.60;;;;;;;19.83;100.00;101175.69;5218443;28;20048;-69
2023/06/26 03:18:56;;;;;;;8.93;4.85;;;;;;;19.77;100.00;101177.22;5220987;28;20025;-69
2023/06/26 03:21:27;;;;;;;11.13;4.93;;;;;;;19.75;100.00;101188.22;5218778;28;20047;-69
2023/06/26 03:23:59;;;;;;;7.43;4.60;;;;;;;19.70;100.00;101181.59;5218750;28;20423;-69
2023/06/26 03:26:30;;;;;;;8.85;5.05;;;;;;;19.66;100.00;101177.53;5218462;28;20030;-69
2023/06/26 03:29:01;;;;;;;9.93;4.65;;;;;;;19.64;100.00;101172.28;5220373;28;20029;-69
2023/06/26 03:31:33;;;;;;;11.10;5.15;;;;;;;19.61;100.00;101178.03;5222743;28;20036;-68
2023/06/26 03:34:04;;;;;;;10.75;5.00;;;;;;;19.57;100.00;101188.34;5226493;28;20389;-69
2023/06/26 03:36:36;;;;;;;10.95;5.07;;;;;;;19.59;100.00;101177.34;5223506;28;20040;-68
2023/06/26 03:39:07;;;;;;;12.52;5.35;;;;;;;19.54;100.00;101171.59;5226306;28;20117;-69
2023/06/26 03:41:38;;;;;;;9.63;5.03;;;;;;;19.55;100.00;101184.13;5225333;28;20484;-68
2023/06/26 03:44:10;;;;;;;7.60;4.82;;;;;;;19.52;100.00;101179.91;5222045;28;20025;-69
2023/06/26 03:46:41;;;;;;;10.30;4.97;;;;;;;19.51;100.00;101177.34;5225509;28;20128;-69
2023/06/26 03:49:13;;;;;;;9.90;5.18;;;;;;;19.50;100.00;101175.66;5225019;28;20074;-69
2023/06/26 03:51:45;;;;;;;11.88;5.45;;;;;;;19.46;100.00;101177.00;5224899;28;20698;-69
2023/06/26 03:54:16;;;;;;;9.95;5.32;;;;;;;19.45;100.00;101192.41;5221506;28;20025;-69
2023/06/26 03:56:48;;;;;;;11.43;5.18;;;;;;;19.45;100.00;101202.38;5223754;28;20578;-69
2023/06/26 03:59:19;;;;;;;11.98;5.75;;;;;;;19.42;100.00;101200.84;5226085;28;20113;-69
2023/06/26 04:01:50;;;;;;;13.77;5.75;;;;;;;19.43;100.00;101204.41;5224667;28;20035;-69
2023/06/26 04:04:22;;;;;;;9.98;5.43;;;;;;;19.40;100.00;101203.72;5218053;28;20189;-69
2023/06/26 04:06:53;;;;;;;10.30;5.18;;;;;;;19.40;100.00;101209.13;5218659;28;20059;-69
2023/06/26 04:09:25;;;;;;;14.00;6.10;;;;;;;19.39;100.00;101222.84;5218021;28;20034;-69
2023/06/26 04:11:56;;;;;;;12.18;5.60;;;;;;;19.42;100.00;101222.50;5226008;28;20048;-69
2023/06/26 04:14:28;;;;;;;12.57;5.90;;;;;;;19.40;100.00;101225.34;5225202;28;20088;-69
2023/06/26 04:17:02;;;;;;;12.88;6.35;;;;;;;19.39;100.00;101230.97;5219892;28;20041;-69
2023/06/26 04:19:35;;;;;;;13.88;6.07;;;;;;;19.37;100.00;101227.56;5212967;28;20025;-69
2023/06/26 04:22:07;;;;;;;12.32;6.20;;;;;;;19.37;100.00;101233.00;5226407;28;20116;-69
2023/06/26 04:24:38;;;;;;;12.50;5.93;;;;;;;19.39;100.00;101239.91;5227561;28;20399;-69
2023/06/26 04:27:10;;;;;;;13.27;5.85;;;;;;;19.43;100.00;101231.47;5230050;28;20036;-69
2023/06/26 04:29:42;;;;;;;13.75;6.40;;;;;;;19.46;100.00;101239.25;5228097;28;20734;-69
2023/06/26 04:32:13;;;;;;;12.43;6.07;;;;;;;19.48;100.00;101237.22;5225136;28;20049;-69
2023/06/26 04:34:45;;;;;;;15.05;6.15;;;;;;;19.51;100.00;101250.44;5226333;28;20136;-68
2023/06/26 04:37:17;;;;;;;13.35;6.43;;;;;;;19.53;100.00;101240.28;5227374;28;20376;-69
2023/06/26 04:39:48;;;;;;;17.17;6.88;;;;;;;19.56;100.00;101248.91;5228152;28;20386;-69
2023/06/26 04:42:21;;;;;;;15.88;6.40;;;;;;;19.57;100.00;101247.88;5228861;28;20029;-69
2023/06/26 04:44:52;;;;;;;11.23;6.30;;;;;;;19.58;100.00;101249.59;5226631;28;20475;-69
2023/06/26 04:47:24;;;;;;;16.45;6.20;;;;;;;19.58;100.00;101254.19;5231835;28;20041;-69
2023/06/26 04:49:56;;;;;;;18.98;6.65;;;;;;;19.60;100.00;101271.09;5225848;28;20030;-69
2023/06/26 04:52:27;;;;;;;15.02;6.25;;;;;;;19.61;100.00;101261.94;5232209;28;20034;-69
2023/06/26 04:54:58;;;;;;;11.80;5.85;;;;;;;19.64;100.00;101268.91;5226024;28;20025;-69
2023/06/26 04:57:32;;;;;;;15.77;5.75;;;;;;;19.64;100.00;101275.16;5224859;28;20060;-69
2023/06/26 05:00:09;;;;;;;16.55;5.88;;;;;;;19.60;100.00;101271.09;5227773;28;20060;-69
2023/06/26 05:02:41;;;;;;;16.17;5.97;;;;;;;19.55;100.00;101266.16;5225206;28;20549;-69
2023/06/26 05:05:13;;;;;;;14.55;5.63;;;;;;;19.59;100.00;101263.97;5229867;28;20033;-69
2023/06/26 05:07:44;;;;;;;15.75;5.82;;;;;;;19.63;100.00;101270.75;5228557;28;20567;-69
2023/06/26 05:10:17;;;;;;;17.98;6.22;;;;;;;19.68;100.00;101283.81;5224293;28;20028;-69
2023/06/26 05:12:48;;;;;;;13.10;5.50;;;;;;;19.65;100.00;101282.25;5225258;28;20083;-69
2023/06/26 05:15:19;;;;;;;20.00;6.15;;;;;;;19.66;100.00;101283.97;5228703;28;20538;-69
2023/06/26 05:17:51;;;;;;;13.90;6.38;;;;;;;19.64;100.00;101282.44;5229694;28;20495;-69
2023/06/26 05:20:22;;;;;;;15.45;5.93;;;;;;;19.64;100.00;101296.81;5236022;28;20032;-68
2023/06/26 05:22:54;;;;;;;19.40;5.97;;;;;;;19.61;100.00;101291.72;5233602;28;20589;-69
2023/06/26 05:25:26;;;;;;;20.00;6.30;;;;;;;19.63;100.00;101289.69;5234482;28;20029;-68
2023/06/26 05:27:58;;;;;;;14.18;5.82;;;;;;;19.62;100.00;101301.56;5236414;28;20046;-69
2023/06/26 05:30:31;;;;;;;15.57;5.90;;;;;;;19.64;100.00;101304.94;5234351;28;20117;-69
2023/06/26 05:33:03;;;;;;;15.45;5.85;;;;;;;19.69;100.00;101297.16;5239470;28;20480;-68
2023/06/26 05:35:36;;;;;;;15.10;5.78;;;;;;;19.73;100.00;101308.53;5233823;28;20037;-68
2023/06/26 05:38:08;;;;;;;16.73;5.80;;;;;;;19.72;100.00;101304.97;5236760;28;20495;-68
2023/06/26 05:40:40;;;;;;;13.35;5.15;;;;;;;19.82;100.00;101314.81;5229000;28;20099;-69
2023/06/26 05:43:12;;;;;;;14.52;5.07;;;;;;;19.78;100.00;101312.44;5238270;28;20032;-69
2023/06/26 05:45:43;;;;;;;15.77;5.47;;;;;;;19.77;100.00;101313.47;5230212;28;20021;-69
2023/06/26 05:48:15;;;;;;;11.07;4.63;;;;;;;19.71;100.00;101319.50;5234483;28;20184;-69
2023/06/26 05:50:46;;;;;;;19.50;5.85;;;;;;;19.67;100.00;101317.28;5233695;28;20032;-69
2023/06/26 05:53:18;;;;;;;13.00;5.10;;;;;;;19.65;100.00;101327.44;5231406;28;20399;-68
2023/06/26 05:55:50;;;;;;;14.38;4.72;;;;;;;19.62;100.00;101331.31;5235830;28;20036;-68
2023/06/26 05:58:23;;;;;;;11.43;4.40;;;;;;;19.64;100.00;101329.31;5233852;28;20372;-69
2023/06/26 06:00:55;;;;;;;18.77;5.65;;;;;;;19.67;100.00;101322.69;5234820;28;20090;-68
2023/06/26 06:03:26;;;;;;;14.20;4.28;;;;;;;19.69;100.00;101335.03;5236806;28;20447;-69
2023/06/26 06:05:58;;;;;;;13.45;4.55;;;;;;;19.71;100.00;101340.31;5228457;28;20100;-69
2023/06/26 06:08:29;;;;;;;15.07;4.55;;;;;;;19.72;100.00;101336.63;5229430;28;20076;-68
2023/06/26 06:11:01;;;;;;;11.70;4.75;;;;;;;19.75;100.00;101344.41;5232342;28;20066;-69
2023/06/26 06:13:33;;;;;;;13.00;4.47;;;;;;;19.79;100.00;101343.09;5225333;28;20116;-68
2023/06/26 06:16:04;;;;;;;12.27;4.18;;;;;;;19.86;100.00;101344.09;5223350;28;20083;-69
2023/06/26 06:18:36;;;;;;;11.75;3.83;;;;;;;19.89;100.00;101348.34;5226012;28;20037;-69
2023/06/26 06:21:07;;;;;;;13.30;4.13;;;;;;;19.92;100.00;101348.88;5225549;28;20415;-68
2023/06/26 06:23:38;;;;;;;12.02;3.53;;;;;;;19.94;100.00;101348.69;5231478;28;20056;-68
2023/06/26 06:26:10;;;;;;;8.85;2.75;;;;;;;19.98;100.00;101363.56;5213813;28;20029;-69
2023/06/26 06:28:41;;;;;;;10.77;3.58;;;;;;;20.01;100.00;101354.28;5224306;28;20601;-69
2023/06/26 06:31:13;;;;;;;11.13;3.58;;;;;;;20.06;100.00;101368.16;5225124;28;20078;-69
2023/06/26 06:33:44;;;;;;;8.68;2.97;;;;;;;20.10;100.00;101362.25;5223787;28;20033;-69
2023/06/26 06:36:15;;;;;;;7.70;2.85;;;;;;;20.13;100.00;101359.19;5231162;28;20038;-69
2023/06/26 06:38:47;;;;;;;8.77;3.17;;;;;;;20.17;100.00;101362.41;5226084;28;20431;-69
2023/06/26 06:41:22;;;;;;;9.35;3.13;;;;;;;20.24;100.00;101368.88;5244013;28;20527;-68
2023/06/26 06:43:53;;;;;;;8.70;3.05;;;;;;;20.30;100.00;101373.59;5225676;28;20075;-68
2023/06/26 06:46:26;;;;;;;8.80;2.97;;;;;;;20.35;100.00;101373.13;5225121;28;20454;-69
2023/06/26 06:48:58;;;;;;;9.45;3.05;;;;;;;20.43;100.00;101391.25;5222935;28;20036;-68
2023/06/26 06:51:29;;;;;;;10.50;4.22;;;;;;;20.47;100.00;101385.31;5225909;28;20029;-68
2023/06/26 06:54:02;;;;;;;9.90;3.92;;;;;;;20.59;100.00;101390.41;5225353;28;20025;-68
2023/06/26 06:56:33;;;;;;;8.88;3.25;;;;;;;20.65;100.00;101400.59;5225249;28;21572;-68
2023/06/26 06:59:04;;;;;;;7.70;3.13;;;;;;;20.69;100.00;101401.94;5229680;28;20042;-69
2023/06/26 07:01:36;;;;;;;8.90;3.25;;;;;;;20.81;100.00;101397.03;5226591;28;20029;-68
2023/06/26 07:04:07;;;;;;;12.60;3.28;;;;;;;20.92;100.00;101405.66;5226790;28;20478;-68
2023/06/26 07:06:39;;;;;;;12.20;3.55;;;;;;;21.00;100.00;101412.06;5227334;28;20053;-68
2023/06/26 07:09:10;;;;;;;8.30;3.03;;;;;;;21.09;100.00;101417.34;5224022;28;20039;-68
2023/06/26 07:11:42;;;;;;;8.15;3.10;;;;;;;21.15;100.00;101421.19;5230640;28;20032;-68
2023/06/26 07:14:13;;;;;;;8.18;3.03;;;;;;;21.27;100.00;101422.56;5225805;28;20060;-69
2023/06/26 07:16:44;;;;;;;7.60;2.97;;;;;;;21.32;100.00;101427.44;5226791;28;20044;-68
2023/06/26 07:19:16;;;;;;;6.72;2.55;;;;;;;21.26;100.00;101423.56;5220720;28;20420;-68
2023/06/26 07:21:47;;;;;;;9.63;2.67;;;;;;;21.21;100.00;101428.69;5226055;28;20033;-69
2023/06/26 07:24:19;;;;;;;6.90;2.40;;;;;;;21.20;100.00;101445.13;5220793;28;20037;-69
2023/06/26 07:26:50;;;;;;;10.35;2.92;;;;;;;;;;5224019;28;20377;-68
2023/06/26 07:29:22;;;;;;;8.70;2.90;;;;;;;21.25;100.00;101432.72;5227669;28;20447;-68
2023/06/26 07:31:53;;;;;;;11.55;2.60;;;;;;;21.30;100.00;101448.50;5222528;28;20021;-68
2023/06/26 07:34:24;;;;;;;5.50;2.13;;;;;;;21.38;100.00;101451.16;5225628;28;20736;-69
2023/06/26 07:36:56;;;;;;;9.00;2.60;;;;;;;21.41;100.00;101450.84;5227954;28;20079;-68
2023/06/26 07:39:27;;;;;;;4.72;2.60;;;;;;;21.43;100.00;101456.09;5227977;28;20060;-69
2023/06/26 07:42:01;;;;;;;7.53;3.03;;;;;;;21.48;100.00;101459.19;5225593;28;20027;-72
2023/06/26 07:44:32;;;;;;;;;;;;;;;21.59;100.00;101461.50;5230520;28;20040;-72
2023/06/26 07:47:04;;;;;;;6.20;2.40;;;;;;;21.56;100.00;101469.16;5229500;28;19921;-72
2023/06/26 07:49:35;;;;;;;9.60;2.50;;;;;;;21.50;100.00;101462.56;5228920;28;20064;-72
2023/06/26 07:52:10;;;;;;;4.90;1.90;;;;;;;21.46;100.00;101469.38;5228053;28;20548;-72
2023/06/26 07:54:41;;;;;;;8.70;2.50;;;;;;;21.43;100.00;101475.09;5225745;28;20599;-72
2023/06/26 07:57:13;;;;;;;6.18;1.92;;;;;;;21.51;100.00;101475.94;5231217;28;20033;-72
2023/06/26 07:59:44;;;;;;;5.43;1.80;;;;;;;21.47;100.00;101481.91;5225560;28;20167;-72
2023/06/26 08:02:16;;;;;;;8.07;2.10;;;;;;;21.46;100.00;101475.63;5226706;28;20371;-72
2023/06/26 08:04:47;;;;;;;5.72;2.20;;;;;;;21.57;100.00;101474.41;5228779;28;20034;-71
2023/06/26 08:07:19;;;;;;;5.22;1.90;;;;;;;21.68;100.00;101487.59;5232093;28;20073;-72
2023/06/26 08:09:50;;;;;;;4.03;1.52;;;;;;;21.67;100.00;101485.94;5227385;28;20361;-71
2023/06/26 08:12:22;;;;;;;5.18;1.23;;;;;;;21.65;100.00;101490.69;5228440;28;20037;-72
2023/06/26 08:14:53;;;;;;;4.05;1.40;;;;;;;21.57;100.00;101493.41;5225098;28;20435;-72
2023/06/26 08:17:24;;;;;;;5.95;1.38;;;;;;;21.49;100.00;101485.28;5226667;28;20487;-72
2023/06/26 08:19:56;;;;;;;6.32;1.63;;;;;;;21.41;100.00;101496.16;5226577;28;20040;-72
2023/06/26 08:22:27;;;;;;;4.93;1.27;;;;;;;21.38;100.00;101485.63;5227832;28;20044;-72
2023/06/26 08:24:58;;;;;;;5.68;1.38;;;;;;;21.31;100.00;101489.03;5229518;28;20040;-71
2023/06/26 08:27:30;;;;;;;4.85;1.30;;;;;;;21.28;100.00;101493.97;5221429;28;20037;-72
2023/06/26 08:30:01;;;;;;;5.22;1.20;;;;;;;21.32;100.00;101500.72;5225309;28;20026;-71
2023/06/26 08:32:33;;;;;;;3.85;1.20;;;;;;;21.35;100.00;101493.09;5229153;28;20056;-72
2023/06/26 08:35:06;;;;;;;5.30;1.40;;;;;;;21.47;100.00;101503.63;5226770;28;20033;-71
2023/06/26 08:37:38;;;;;;;4.47;1.25;;;;;;;21.53;100.00;101490.22;5228394;28;20033;-72
2023/06/26 08:40:10;;;;;;;3.40;1.17;;;;;;;21.67;100.00;101485.06;5224804;28;20428;-72
2023/06/26 08:42:41;;;;;;;4.43;1.42;;;;;;;21.82;100.00;101499.63;5224013;28;20029;-71
2023/06/26 08:45:13;;;;;;;4.47;1.23;;;;;;;22.00;100.00;101493.94;5228056;28;20033;-72
2023/06/26 08:47:46;;;;;;;6.18;1.48;;;;;;;21.94;100.00;101497.38;5227639;28;20433;-71
2023/06/26 08:50:21;;;;;;;4.53;1.13;;;;;;;21.91;100.00;101503.16;5227583;28;20038;-72
2023/06/26 08:53:17;;;;;;;5.53;1.40;;;;;;;22.02;100.00;101510.09;5231596;28;20109;-72
2023/06/26 08:55:53;;;;;;;4.75;1.55;;;;;;;21.99;100.00;101516.69;5225590;28;20424;-72
2023/06/26 08:58:24;;;;;;;6.78;1.40;;;;;;;22.03;100.00;101525.34;5220066;28;20061;-71
2023/06/26 09:00:56;;;;;;;6.22;1.20;;;;;;;22.06;100.00;101517.69;5226631;28;20226;-72
2023/06/26 09:03:28;;;;;;;7.53;1.50;;;;;;;22.03;100.00;101523.47;5227615;28;20030;-71
2023/06/26 09:06:00;;;;;;;4.20;1.23;;;;;;;22.05;100.00;101529.59;5229316;28;20060;-71
2023/06/26 09:08:31;;;;;;;3.78;1.27;;;;;;;22.11;100.00;101531.59;5229458;28;20033;-72
2023/06/26 09:11:03;;;;;;;3.03;0.80;;;;;;;22.17;100.00;101535.50;5226227;28;20084;-71
2023/06/26 09:13:34;;;;;;;4.78;1.30;;;;;;;22.29;100.00;101530.53;5229296;28;20033;-71
2023/06/26 09:16:07;;;;;;;3.60;1.00;;;;;;;22.30;100.00;101532.22;5228117;28;20033;-71
2023/06/26 09:18:41;;;;;;;4.95;1.20;;;;;;;22.37;100.00;101529.63;5225683;28;20057;-71
2023/06/26 09:21:14;;;;;;;7.03;1.60;;;;;;;22.35;100.00;101537.97;5226402;28;20040;-72
2023/06/26 09:23:46;;;;;;;5.32;1.30;;;;;;;22.31;100.00;101537.47;5221067;28;20053;-68
2023/06/26 09:26:17;;;;;;;6.45;1.30;;;;;;;22.38;100.00;101539.47;5225265;28;20041;-68
2023/06/26 09:28:50;;;;;;;4.40;1.10;;;;;;;22.42;100.00;101536.25;5226048;28;20324;-68
2023/06/26 09:31:23;;;;;;;5.30;1.13;;;;;;;22.52;100.00;101545.00;5228671;28;20044;-68
2023/06/26 09:33:59;;;;;;;7.05;1.40;;;;;;;22.57;100.00;101549.94;5226381;28;20033;-68
2023/06/26 09:36:32;;;;;;;4.90;1.20;;;;;;;22.68;100.00;101543.22;5225690;28;20041;-69
2023/06/26 09:39:10;;;;;;;4.53;1.10;;;;;;;22.80;100.00;101552.66;5229234;28;20514;-68
2023/06/26 09:41:44;;;;;;;4.75;1.08;;;;;;;22.92;100.00;101565.84;5230764;28;20064;-68
2023/06/26 09:44:16;;;;;;;;;;;;;;;23.05;100.00;101560.66;5231384;28;20064;-69
2023/06/26 09:46:47;;;;;;;3.75;0.70;;;;;;;22.92;100.00;101565.84;5231030;28;19964;-68
2023/06/26 09:49:18;;;;;;;4.00;0.90;;;;;;;22.90;100.00;101569.59;5232461;28;20129;-70
2023/06/26 09:51:50;;;;;;;2.83;0.88;;;;;;;22.84;100.00;101581.19;5225004;28;20032;-68
2023/06/26 09:54:22;;;;;;;4.43;0.95;;;;;;;22.79;100.00;101586.34;5235566;28;20467;-69
2023/06/26 09:56:55;;;;;;;2.60;0.98;;;;;;;22.66;100.00;101577.91;5233002;28;20026;-69
2023/06/26 09:59:27;;;;;;;4.18;1.40;;;;;;;22.66;100.00;101570.59;5232843;28;20037;-69
2023/06/26 10:01:59;;;;;;;4.30;1.13;;;;;;;22.77;100.00;101580.22;5231279;28;20028;-68
2023/06/26 10:04:30;;;;;;;6.60;1.10;;;;;;;22.84;100.00;101572.16;5232028;28;20078;-69
2023/06/26 10:07:05;;;;;;;5.15;0.88;;;;;;;22.79;100.00;101586.34;5232521;28;21619;-68
2023/06/26 10:09:42;;;;;;;3.83;1.15;;;;;;;22.73;100.00;101589.78;5231177;28;20083;-69
2023/06/26 10:12:29;;;;;;;5.47;1.00;;;;;;;22.80;100.00;101595.34;5230048;28;20442;-69
2023/06/26 10:15:04;;;;;;;2.83;0.82;;;;;;;22.75;100.00;101587.72;5235182;28;20494;-69
2023/06/26 10:17:38;;;;;;;3.67;1.08;;;;;;;22.69;100.00;101586.56;5233167;28;20029;-69
2023/06/26 10:20:11;;;;;;;4.97;1.10;;;;;;;22.88;100.00;101587.97;5233046;28;20029;-69
2023/06/26 10:22:46;;;;;;;5.88;0.90;;;;;;;22.89;100.00;101588.81;5228310;28;20033;-69
2023/06/26 10:25:19;;;;;;;2.60;0.63;;;;;;;22.84;100.00;101599.38;5232858;28;20033;-69
2023/06/26 10:27:56;;;;;;;3.35;0.88;;;;;;;22.88;100.00;101590.69;5231218;28;20052;-70
2023/06/26 10:30:33;;;;;;;7.22;1.00;;;;;;;22.95;100.00;101598.97;5234536;28;20056;-69
2023/06/26 10:33:05;;;;;;;3.92;0.80;;;;;;;22.89;100.00;101588.81;5231363;28;20060;-70
2023/06/26 10:35:44;;;;;;;4.55;1.10;;;;;;;22.89;100.00;101605.16;5225339;28;20026;-70
2023/06/26 10:38:15;;;;;;;4.88;1.00;;;;;;;22.87;100.00;101591.72;5227739;28;20477;-70
2023/06/26 10:40:51;;;;;;;3.33;0.90;;;;;;;22.85;100.00;101601.94;5229833;28;20079;-70
2023/06/26 10:43:30;;;;;;;4.50;0.95;;;;;;;22.90;100.00;101615.84;5223708;28;20029;-69
2023/06/26 10:46:02;;;;;;;4.07;1.13;;;;;;;22.88;98.81;101609.75;5234638;28;20109;-69
2023/06/26 10:48:58;;;;;;;6.53;0.70;;;;;;;23.03;99.39;101619.88;5227759;28;20102;-69
2023/06/26 10:51:29;;;;;;;3.00;0.70;;;;;;;22.99;87.46;101616.66;5231512;28;20056;-69
2023/06/26 10:54:01;;;;;;;5.95;0.77;;;;;;;22.95;91.71;101619.91;5226261;28;20095;-69
2023/06/26 10:56:44;;;;;;;3.13;0.80;;;;;;;23.01;92.32;101613.72;5228594;28;20057;-67
2023/06/26 10:59:24;;;;;;;4.45;0.95;;;;;;;22.96;90.73;101608.00;5223691;28;20049;-69
2023/06/26 11:02:07;;;;;;;5.68;1.23;;;;;;;23.00;96.69;101614.78;5227436;28;20040;-69
2023/06/26 11:04:49;;;;;;;5.07;1.00;;;;;;;23.03;94.83;101636.22;5232961;28;20120;-68
2023/06/26 11:07:25;;;;;;;3.83;1.00;;;;;;;22.95;96.27;101633.50;5223758;28;20106;-70
2023/06/26 11:10:10;;;;;;;2.92;0.70;;;;;;;22.97;95.25;101635.00;5219929;28;20132;-69
2023/06/26 11:12:43;;;;;;;3.17;0.80;;;;;;;22.97;95.97;101626.84;5226171;28;20061;-68
2023/06/26 11:15:16;;;;;;;6.82;0.90;;;;;;;22.94;89.29;101623.66;5225334;28;20033;-70
2023/06/26 11:17:49;;;;;;;6.95;1.67;;;;;;;23.01;93.91;101624.63;5226623;28;20037;-69
2023/06/26 11:20:20;;;;;;;3.25;0.80;;;;;;;23.17;93.85;101635.44;5233219;28;20104;-69
2023/06/26 11:22:52;;;;;;;4.65;1.00;;;;;;;23.25;90.62;101634.53;5226767;28;20383;-70
2023/06/26 11:25:24;;;;;;;4.93;0.95;;;;;;;23.31;88.78;101638.41;5234044;28;20364;-70
2023/06/26 11:27:56;;;;;;;5.07;0.88;;;;;;;23.29;87.45;101633.13;5233593;28;20034;-70
2023/06/26 11:30:27;;;;;;;4.15;0.85;;;;;;;23.33;88.25;101639.06;5228666;28;20045;-69
2023/06/26 11:33:06;;;;;;;5.47;0.88;;;;;;;23.38;90.84;101634.78;5231017;28;20116;-70
2023/06/26 11:35:38;;;;;;;2.97;0.80;;;;;;;23.38;86.56;101642.09;5230289;28;20476;-70
2023/06/26 11:38:10;;;;;;;4.90;1.35;;;;;;;23.39;91.01;101650.06;5230825;28;20134;-70
2023/06/26 11:40:41;;;;;;;6.00;1.10;;;;;;;23.27;90.26;101667.88;5229675;28;20026;-69